Time;durP1;ratioP1;P1;durP2;ratioP2;P2;SDS_P1;SDS_P2;PMS_P1;PMS_P2;Temp;Humidity;BMP_temperature;BMP_pressure;BME280_temperature;BME280_humidity;BME280_pressure;Samples;Min_cycle;Max_cycle;Signal;HPM_P1;HPM_P2
2022/10/23 04:22:52;;;;;;;3.95;2.55;;;;;;;10.04;100.00;100091.72;5150606;27;20358;-65
2022/10/23 04:25:18;;;;;;;3.72;2.13;;;;;;;10.06;100.00;100088.88;5108420;28;20189;-67
2022/10/23 04:27:44;;;;;;;2.90;2.10;;;;;;;10.12;100.00;100084.69;5108082;28;20043;-67
2022/10/23 04:30:10;;;;;;;4.85;2.92;;;;;;;10.18;100.00;100078.66;5107878;28;20039;-67
2022/10/23 04:32:36;;;;;;;3.42;2.78;;;;;;;10.23;100.00;100076.31;5108189;28;20070;-66
2022/10/23 04:35:03;;;;;;;4.00;2.50;;;;;;;10.30;100.00;100079.94;5107941;28;20043;-66
2022/10/23 04:37:29;;;;;;;2.67;2.35;;;;;;;10.30;100.00;100085.25;5107727;28;20032;-67
2022/10/23 04:39:54;;;;;;;5.38;2.17;;;;;;;10.25;100.00;100092.97;5108923;28;20133;-67
2022/10/23 04:42:20;;;;;;;4.05;2.92;;;;;;;10.32;100.00;100100.06;5108740;28;20124;-66
2022/10/23 04:44:46;;;;;;;4.07;2.40;;;;;;;10.32;100.00;100099.25;5107726;28;20047;-67
2022/10/23 04:47:11;;;;;;;3.65;2.35;;;;;;;10.36;100.00;100087.22;5107794;28;20031;-66
2022/10/23 04:49:46;;;;;;;3.15;2.47;;;;;;;10.40;100.00;100090.38;5107726;28;20118;-67
2022/10/23 04:52:38;;;;;;;5.13;1.98;;;;;;;10.46;100.00;100077.19;5108688;28;20566;-66
2022/10/23 04:55:24;;;;;;;3.22;2.60;;;;;;;10.49;100.00;100060.84;5108874;28;20081;-66
2022/10/23 04:58:27;;;;;;;4.25;2.38;;;;;;;10.56;100.00;100060.97;5103809;28;20058;-66
2022/10/23 05:00:55;;;;;;;3.95;2.30;;;;;;;10.59;100.00;100061.44;5107542;28;20054;-65
2022/10/23 05:03:24;;;;;;;3.83;2.17;;;;;;;10.62;100.00;100060.25;5107457;28;20031;-68
2022/10/23 05:05:54;;;;;;;3.40;2.33;;;;;;;10.59;100.00;100048.13;5141784;27;20038;-66
2022/10/23 05:08:46;;;;;;;2.33;2.10;;;;;;;10.61;100.00;100042.63;5106484;28;20147;-66
2022/10/23 05:11:30;;;;;;;3.75;2.17;;;;;;;10.52;100.00;100043.69;5107958;28;20108;-66
2022/10/23 05:13:56;;;;;;;3.25;2.22;;;;;;;10.42;100.00;100051.91;5107351;28;20035;-67
2022/10/23 05:16:43;;;;;;;3.85;2.20;;;;;;;10.34;100.00;100075.94;5107317;28;20047;-66
2022/10/23 05:19:17;;;;;;;3.38;2.30;;;;;;;10.31;100.00;100070.97;5094559;28;20039;-67
2022/10/23 05:21:43;;;;;;;2.85;2.22;;;;;;;10.33;100.00;100051.13;5106469;28;20583;-67
2022/10/23 05:24:09;;;;;;;6.43;2.70;;;;;;;10.36;100.00;100044.63;5107106;28;20169;-66
2022/10/23 05:26:34;;;;;;;3.60;2.55;;;;;;;10.29;100.00;100046.34;5107008;28;20089;-67
2022/10/23 05:29:05;;;;;;;2.95;2.22;;;;;;;10.24;100.00;100054.03;5106915;28;20044;-67
2022/10/23 05:31:33;;;;;;;4.97;2.13;;;;;;;10.26;100.00;100058.16;5106241;28;20500;-67
2022/10/23 05:34:05;;;;;;;2.45;1.90;;;;;;;10.28;100.00;100060.66;5094272;28;20036;-67
2022/10/23 05:36:30;;;;;;;3.30;2.35;;;;;;;10.27;100.00;100056.34;5093160;28;20109;-67
2022/10/23 05:38:57;;;;;;;4.97;2.20;;;;;;;10.27;100.00;100049.19;5094540;28;20036;-66
2022/10/23 05:41:22;;;;;;;2.13;1.90;;;;;;;10.31;100.00;100039.00;5092763;28;20078;-66
2022/10/23 05:43:53;;;;;;;2.95;1.77;;;;;;;10.28;100.00;100034.03;5127197;27;20501;-66
2022/10/23 05:46:40;;;;;;;3.20;1.95;;;;;;;10.19;100.00;100045.72;5094098;28;20047;-66
2022/10/23 05:49:13;;;;;;;2.50;2.17;;;;;;;10.21;100.00;100043.69;5093367;28;20408;-67
2022/10/23 05:51:50;;;;;;;2.75;1.88;;;;;;;10.24;100.00;100036.22;5092345;28;20040;-68
2022/10/23 05:54:22;;;;;;;2.13;1.80;;;;;;;10.23;100.00;100025.75;5092672;28;20404;-67
2022/10/23 05:57:00;;;;;;;3.03;1.98;;;;;;;10.22;100.00;100024.06;5092610;28;20154;-67
2022/10/23 05:59:31;;;;;;;4.32;2.20;;;;;;;10.15;100.00;100033.75;5092554;28;20032;-66
2022/10/23 06:02:02;;;;;;;2.47;2.00;;;;;;;10.18;100.00;100017.44;5092269;28;20049;-67
2022/10/23 06:04:45;;;;;;;1.85;1.48;;;;;;;10.19;100.00;100019.09;5126738;27;20042;-66
2022/10/23 06:07:33;;;;;;;2.33;1.90;;;;;;;10.03;100.00;100030.66;5082885;28;20554;-67
2022/10/23 06:10:03;;;;;;;6.45;2.10;;;;;;;9.84;100.00;100015.94;5092243;28;20542;-66
2022/10/23 06:12:31;;;;;;;2.53;1.83;;;;;;;9.99;100.00;100018.72;5091910;28;20043;-66
2022/10/23 06:14:57;;;;;;;3.17;2.22;;;;;;;9.97;100.00;100015.38;5092315;28;20389;-67
2022/10/23 06:17:32;;;;;;;2.45;1.88;;;;;;;10.01;100.00;100014.03;5092251;28;20039;-66
2022/10/23 06:20:01;;;;;;;2.28;1.85;;;;;;;9.94;100.00;100007.75;5093591;28;20036;-67
2022/10/23 06:22:28;;;;;;;4.10;1.98;;;;;;;9.96;100.00;100009.22;5091721;28;20054;-67
2022/10/23 06:25:07;;;;;;;2.63;2.00;;;;;;;10.02;100.00;99997.88;5092119;28;20052;-69
2022/10/23 06:27:33;;;;;;;1.98;1.77;;;;;;;9.95;100.00;100007.56;5092108;28;20044;-68
2022/10/23 06:30:00;;;;;;;2.13;1.73;;;;;;;9.98;100.00;99988.63;5091890;28;20127;-68
2022/10/23 06:32:26;;;;;;;3.22;1.63;;;;;;;10.04;100.00;99985.25;5093145;28;20545;-68
2022/10/23 06:35:07;;;;;;;10.25;2.17;;;;;;;9.98;100.00;99993.94;5092034;28;20081;-68
2022/10/23 06:37:33;;;;;;;5.45;2.28;;;;;;;9.95;100.00;100006.75;5091928;28;20035;-68
2022/10/23 06:40:07;;;;;;;5.65;2.40;;;;;;;9.96;100.00;100003.91;5091912;28;20031;-67
2022/10/23 06:42:54;;;;;;;2.75;1.92;;;;;;;10.05;100.00;99997.56;5093206;28;20047;-67
2022/10/23 06:45:40;;;;;;;2.28;1.88;;;;;;;10.06;100.00;100009.84;5090819;28;20040;-68
2022/10/23 06:48:11;;;;;;;6.40;2.22;;;;;;;10.13;100.00;99995.84;5093070;28;20052;-69
2022/10/23 06:50:55;;;;;;;2.33;1.90;;;;;;;10.17;100.00;99991.81;5092859;28;20094;-68
2022/10/23 06:53:33;;;;;;;5.35;2.30;;;;;;;10.25;100.00;99997.94;5091781;28;20056;-69
2022/10/23 06:56:07;;;;;;;2.88;1.92;;;;;;;10.31;100.00;99988.44;5107735;28;20043;-68
2022/10/23 06:58:35;;;;;;;3.65;2.05;;;;;;;10.32;100.00;99988.25;5091650;28;20032;-65
2022/10/23 07:01:11;;;;;;;2.33;1.75;;;;;;;10.36;100.00;99995.88;5091238;28;20012;-64
2022/10/23 07:03:38;;;;;;;3.67;2.15;;;;;;;10.43;100.00;99991.47;5091478;28;20024;-65
2022/10/23 07:06:07;;;;;;;;;;;;;;;10.43;100.00;100018.97;5092061;28;20070;-65
2022/10/23 07:08:34;;;;;;;;;;;;;;;10.42;100.00;100030.59;5091780;28;19981;-65
2022/10/23 07:11:06;;;;;;;2.97;1.95;;;;;;;10.48;100.00;100031.72;5090974;28;19920;-64
2022/10/23 07:13:34;;;;;;;2.10;1.73;;;;;;;10.52;100.00;100031.19;5091149;28;20462;-63
2022/10/23 07:16:17;;;;;;;3.25;1.85;;;;;;;10.59;100.00;100032.16;5091360;28;20401;-64
2022/10/23 07:18:44;;;;;;;2.40;1.90;;;;;;;10.67;100.00;100038.41;5091407;28;20534;-63
2022/10/23 07:21:26;;;;;;;7.95;2.28;;;;;;;10.72;100.00;100031.53;5092053;28;20090;-62
2022/10/23 07:23:56;;;;;;;3.15;1.95;;;;;;;10.80;100.00;100038.63;5091124;28;20137;-63
2022/10/23 07:26:22;;;;;;;3.10;2.22;;;;;;;10.89;100.00;100042.91;5091055;28;20114;-63
2022/10/23 07:28:53;;;;;;;3.55;2.03;;;;;;;10.92;100.00;100037.19;5091524;28;20036;-63
2022/10/23 07:31:22;;;;;;;4.32;2.60;;;;;;;10.98;100.00;100047.13;5090632;28;20024;-64
2022/10/23 07:34:06;;;;;;;2.65;1.80;;;;;;;11.03;100.00;100039.44;5092247;28;20085;-66
2022/10/23 07:36:32;;;;;;;3.40;2.03;;;;;;;11.07;100.00;100046.03;5092103;28;20032;-63
2022/10/23 07:38:57;;;;;;;6.38;2.03;;;;;;;11.14;100.00;100051.47;5090838;28;20032;-63
2022/10/23 07:41:23;;;;;;;4.75;2.38;;;;;;;11.22;100.00;100054.09;5091910;28;20102;-63
2022/10/23 07:43:49;;;;;;;4.18;2.63;;;;;;;11.30;100.00;100039.84;5124739;27;20039;-64
2022/10/23 07:46:14;;;;;;;3.13;2.50;;;;;;;11.36;100.00;100042.59;5092031;28;20127;-63
2022/10/23 07:48:40;;;;;;;4.20;1.92;;;;;;;11.39;100.00;100041.41;5090831;28;20393;-64
2022/10/23 07:51:11;;;;;;;3.10;2.40;;;;;;;11.45;100.00;100024.66;5090251;28;20039;-63
2022/10/23 07:53:43;;;;;;;3.65;2.10;;;;;;;11.54;100.00;100023.56;5090613;28;20115;-64
2022/10/23 07:56:30;;;;;;;3.60;2.00;;;;;;;11.61;100.00;100026.31;5090317;28;20036;-62
2022/10/23 07:59:14;;;;;;;4.05;1.92;;;;;;;11.68;100.00;100027.25;5091868;28;20051;-64
2022/10/23 08:01:45;;;;;;;2.65;2.10;;;;;;;11.74;100.00;100023.00;5090209;28;20436;-64
2022/10/23 08:04:11;;;;;;;3.03;2.05;;;;;;;11.83;100.00;100024.56;5124464;27;20060;-63
2022/10/23 08:06:45;;;;;;;3.65;1.90;;;;;;;11.88;100.00;100023.00;5090529;28;20054;-64
2022/10/23 08:09:10;;;;;;;2.92;2.05;;;;;;;11.99;100.00;100026.19;5090369;28;20122;-63
2022/10/23 08:11:39;;;;;;;1.98;1.75;;;;;;;12.07;100.00;100028.78;5089928;28;20085;-63
2022/10/23 08:14:07;;;;;;;5.40;2.13;;;;;;;12.14;100.00;100027.00;5090259;28;20542;-64
2022/10/23 08:16:36;;;;;;;3.03;1.73;;;;;;;12.21;100.00;100027.91;5090406;28;20382;-63
2022/10/23 08:19:03;;;;;;;3.45;1.90;;;;;;;12.28;100.00;100020.78;5090500;28;20071;-65
2022/10/23 08:21:28;;;;;;;2.30;2.10;;;;;;;12.37;100.00;100013.47;5089673;28;20036;-62
2022/10/23 08:23:56;;;;;;;1.98;1.60;;;;;;;12.43;100.00;100013.53;5091363;28;20055;-64
2022/10/23 08:26:23;;;;;;;1.77;1.42;;;;;;;12.50;100.00;100013.59;5090181;28;20043;-63
2022/10/23 08:28:49;;;;;;;3.33;1.77;;;;;;;12.56;100.00;100012.00;5090107;28;20105;-64
2022/10/23 08:31:17;;;;;;;2.13;1.55;;;;;;;12.73;100.00;100032.09;5089720;28;20070;-52
2022/10/23 08:33:58;;;;;;;3.42;2.03;;;;;;;12.88;100.00;100040.84;5090078;28;20085;-51
2022/10/23 08:36:27;;;;;;;1.98;1.60;;;;;;;12.94;100.00;100029.41;5089928;28;20046;-51
2022/10/23 08:38:55;;;;;;;1.98;1.75;;;;;;;13.05;100.00;100030.72;5089988;28;20028;-55
2022/10/23 08:41:28;;;;;;;2.63;1.80;;;;;;;13.18;100.00;100035.34;5089752;28;20032;-64
2022/10/23 08:44:12;;;;;;;3.58;1.98;;;;;;;13.37;100.00;100033.84;5090170;28;20028;-63
2022/10/23 08:46:45;;;;;;;3.95;2.28;;;;;;;13.55;100.00;100037.63;5090144;28;20032;-63
2022/10/23 08:49:38;;;;;;;3.38;2.05;;;;;;;13.67;100.00;100035.25;5091376;28;20109;-63
2022/10/23 08:52:13;;;;;;;2.38;1.83;;;;;;;13.88;100.00;100039.66;5089502;28;20036;-63
2022/10/23 08:54:49;;;;;;;3.60;2.03;;;;;;;14.08;100.00;100043.25;5091535;28;20101;-63
2022/10/23 08:57:16;;;;;;;4.50;2.00;;;;;;;14.21;100.00;100037.09;5091608;28;20032;-62
2022/10/23 08:59:47;;;;;;;4.20;1.63;;;;;;;14.38;100.00;100026.84;5091390;28;20048;-63
2022/10/23 09:02:49;;;;;;;1.45;1.35;;;;;;;14.47;100.00;100004.19;5091072;28;20408;-63
2022/10/23 09:05:30;;;;;;;2.50;1.52;;;;;;;14.64;100.00;99997.41;5067837;28;20040;-64
2022/10/23 09:08:23;;;;;;;2.53;1.70;;;;;;;14.89;100.00;99981.53;5092474;28;20044;-48
2022/10/23 09:10:55;;;;;;;1.75;1.65;;;;;;;14.95;100.00;99976.38;5094716;28;20566;-63
2022/10/23 09:13:36;;;;;;;2.88;1.50;;;;;;;15.15;100.00;99975.31;5095032;28;20039;-62
2022/10/23 09:16:29;;;;;;;2.33;1.50;;;;;;;15.25;100.00;99960.63;5094886;28;20119;-63
2022/10/23 09:18:56;;;;;;;2.65;1.50;;;;;;;15.48;100.00;99969.03;5095159;28;20047;-63
2022/10/23 09:21:26;;;;;;;2.47;1.50;;;;;;;15.69;100.00;99970.63;5094396;28;20523;-63
2022/10/23 09:23:52;;;;;;;2.00;1.35;;;;;;;15.74;99.49;99965.44;5093594;28;20507;-63
2022/10/23 09:26:17;;;;;;;2.17;1.45;;;;;;;15.93;99.14;99967.22;5094642;28;20035;-63
2022/10/23 09:28:51;;;;;;;3.05;1.50;;;;;;;16.09;98.86;99965.06;5094777;28;20442;-64
2022/10/23 09:31:18;;;;;;;1.67;1.40;;;;;;;16.20;98.82;99967.88;5094184;28;20435;-64
2022/10/23 09:33:54;;;;;;;2.22;1.33;;;;;;;16.38;98.02;99967.16;5094455;28;20044;-64
2022/10/23 09:36:23;;;;;;;1.52;1.33;;;;;;;16.57;96.19;99972.59;5094615;28;20098;-64
2022/10/23 09:38:50;;;;;;;2.45;1.50;;;;;;;16.71;98.11;99953.47;5093254;28;20059;-64
2022/10/23 09:41:29;;;;;;;3.30;1.65;;;;;;;16.93;95.23;99969.22;5094192;28;20096;-63
2022/10/23 09:44:07;;;;;;;3.22;1.70;;;;;;;17.07;93.07;99968.84;5094431;28;20036;-64
2022/10/23 09:46:41;;;;;;;1.95;1.00;;;;;;;17.11;92.92;99957.66;5127299;27;20450;-63
2022/10/23 09:49:15;;;;;;;2.65;1.30;;;;;;;17.35;91.67;99956.78;5094210;28;20035;-63
2022/10/23 09:51:54;;;;;;;1.73;1.20;;;;;;;17.58;89.63;99951.50;5093826;28;20066;-63
2022/10/23 09:54:22;;;;;;;1.95;1.63;;;;;;;17.92;87.29;99956.50;5094287;28;20426;-61
2022/10/23 09:56:49;;;;;;;1.40;1.23;;;;;;;18.07;87.08;99946.16;5094021;28;20386;-63
2022/10/23 09:59:14;;;;;;;1.70;1.27;;;;;;;18.56;87.02;99953.06;5093887;28;20043;-63
2022/10/23 10:01:55;;;;;;;1.30;1.00;;;;;;;19.19;85.67;99959.69;5093631;28;20073;-64
2022/10/23 10:04:43;;;;;;;1.55;1.08;;;;;;;19.77;77.01;99964.97;5085396;28;20047;-62
2022/10/23 10:07:22;;;;;;;0.63;0.60;;;;;;;19.90;74.71;99958.47;5093766;28;20048;-63
2022/10/23 10:09:47;;;;;;;1.38;0.77;;;;;;;19.74;71.89;99948.41;5093739;28;20074;-63
2022/10/23 10:12:38;;;;;;;1.45;0.80;;;;;;;19.63;72.43;99952.00;5093273;28;20072;-63
2022/10/23 10:15:14;;;;;;;0.90;0.85;;;;;;;20.18;72.66;99963.03;5093638;28;20079;-64
2022/10/23 10:18:06;;;;;;;1.08;0.80;;;;;;;20.01;72.00;99945.94;5093632;28;20040;-63
2022/10/23 10:20:44;;;;;;;1.20;0.90;;;;;;;20.40;70.65;99946.09;5093181;28;20042;-63
2022/10/23 10:23:17;;;;;;;;;;;;;;;20.53;68.78;99932.28;5093853;28;20522;-63
2022/10/23 10:25:58;;;;;;;0.70;0.70;;;;;;;20.76;67.72;99921.28;5093510;28;19969;-62
2022/10/23 10:28:37;;;;;;;0.70;0.63;;;;;;;21.11;63.68;99920.16;5093358;28;20123;-65
2022/10/23 10:31:36;;;;;;;0.80;0.70;;;;;;;21.63;63.22;99911.63;5093500;28;20031;-62
2022/10/23 10:34:21;;;;;;;0.70;0.65;;;;;;;22.35;59.66;99903.13;5092067;28;20043;-60
2022/10/23 10:37:02;;;;;;;0.82;0.73;;;;;;;22.32;57.96;99911.00;5093290;28;20536;-60
2022/10/23 10:39:38;;;;;;;0.50;0.50;;;;;;;22.19;60.23;99904.91;5092036;28;20412;-58
2022/10/23 10:42:32;;;;;;;0.82;0.60;;;;;;;21.77;60.00;99915.56;5091391;28;20381;-60
2022/10/23 10:45:13;;;;;;;1.90;0.80;;;;;;;21.54;60.27;99918.56;5093181;28;20051;-60
2022/10/23 10:48:16;;;;;;;1.00;0.65;;;;;;;21.22;61.92;99926.53;5093400;28;20335;-59
2022/10/23 10:51:15;;;;;;;0.80;0.60;;;;;;;20.83;62.55;99921.94;5068156;28;20044;-61
2022/10/23 10:54:12;;;;;;;0.77;0.75;;;;;;;20.77;65.18;99930.22;5092934;28;20051;-61
2022/10/23 10:56:40;;;;;;;0.65;0.65;;;;;;;20.55;68.34;99909.34;5093013;28;20071;-60
2022/10/23 10:59:22;;;;;;;1.80;1.13;;;;;;;20.52;67.16;99903.59;5093033;28;20035;-59
2022/10/23 11:02:26;;;;;;;1.23;0.93;;;;;;;20.37;66.36;99887.91;5092391;28;20473;-58
2022/10/23 11:04:59;;;;;;;1.25;0.77;;;;;;;20.10;68.68;99887.75;5092614;28;20170;-60
2022/10/23 11:07:32;;;;;;;1.05;0.88;;;;;;;20.32;69.56;99877.81;5092754;28;20032;-60
2022/10/23 11:10:02;;;;;;;1.02;0.93;;;;;;;20.28;70.78;99868.59;5092811;28;20361;-60
2022/10/23 11:12:28;;;;;;;0.90;0.90;;;;;;;20.03;70.24;99863.56;5092286;28;20036;-63
2022/10/23 11:14:55;;;;;;;2.42;1.40;;;;;;;20.01;71.21;99865.66;5092519;28;20399;-64
2022/10/23 11:17:26;;;;;;;0.80;0.75;;;;;;;19.86;70.85;99857.31;5091083;28;20397;-56
2022/10/23 11:20:01;;;;;;;1.73;0.98;;;;;;;20.04;69.67;99851.69;5091979;28;20081;-66
2022/10/23 11:22:29;;;;;;;1.20;0.95;;;;;;;19.99;69.98;99846.19;5084986;28;20076;-57
2022/10/23 11:25:00;;;;;;;;;;;;;;;19.85;70.41;99849.44;5092700;28;20032;-64
2022/10/23 11:27:41;;;;;;;1.60;1.00;;;;;;;20.15;70.62;99846.44;5071988;28;19920;-64
2022/10/23 11:30:21;;;;;;;1.83;0.90;;;;;;;20.41;71.34;99840.38;5069752;28;20524;-64
2022/10/23 11:32:49;;;;;;;2.33;1.42;;;;;;;20.94;68.83;99851.72;5071523;28;20070;-64
2022/10/23 11:35:36;;;;;;;1.67;1.30;;;;;;;21.56;66.86;99845.97;5089144;28;20517;-64
2022/10/23 11:38:20;;;;;;;;;;;;;;;22.22;63.43;99841.19;5090895;28;20465;-64
2022/10/23 11:40:59;;;;;;;1.17;1.00;;;;;;;22.87;59.47;99834.56;5091344;28;20023;-64
2022/10/23 11:43:46;;;;;;;3.53;1.20;;;;;;;23.51;60.01;99842.41;5091753;28;20532;-64
2022/10/23 11:46:27;;;;;;;1.42;1.05;;;;;;;23.63;56.93;99844.13;5091940;28;20035;-64
2022/10/23 11:48:55;;;;;;;1.80;0.93;;;;;;;23.83;56.45;99841.41;5092030;28;20062;-64
2022/10/23 11:51:26;;;;;;;1.88;1.10;;;;;;;23.79;55.11;99838.41;5090880;28;20046;-64
2022/10/23 11:53:52;;;;;;;3.10;1.38;;;;;;;23.87;54.72;99822.69;5091680;28;20032;-65
2022/10/23 11:56:20;;;;;;;2.22;1.15;;;;;;;23.31;57.19;99836.94;5091877;28;20089;-65
2022/10/23 11:58:50;;;;;;;1.55;0.90;;;;;;;23.56;56.92;99841.63;5091724;28;20117;-65
2022/10/23 12:01:29;;;;;;;3.88;1.30;;;;;;;23.47;57.90;99833.19;5090471;28;20077;-64
2022/10/23 12:04:01;;;;;;;3.60;1.33;;;;;;;23.21;56.65;99821.44;5091346;28;20040;-63
2022/10/23 12:06:31;;;;;;;1.35;0.98;;;;;;;22.62;56.99;99805.34;5090224;28;20052;-64
2022/10/23 12:09:05;;;;;;;1.60;1.20;;;;;;;22.42;56.86;99795.19;5091571;28;20035;-64
2022/10/23 12:11:44;;;;;;;3.35;1.05;;;;;;;22.53;59.52;99814.25;5089910;28;20036;-62
2022/10/23 12:14:48;;;;;;;2.53;1.20;;;;;;;22.55;58.38;99807.47;5091601;28;20028;-62
2022/10/23 12:17:22;;;;;;;3.80;1.75;;;;;;;22.34;58.66;99805.72;5048820;28;20086;-62
2022/10/23 12:20:11;;;;;;;2.38;1.35;;;;;;;22.59;57.91;99802.34;5086283;28;20469;-61
2022/10/23 12:23:02;;;;;;;1.42;1.13;;;;;;;22.56;58.06;99803.72;5091234;28;20055;-60
2022/10/23 12:25:36;;;;;;;2.35;1.30;;;;;;;22.63;57.83;99792.63;5091507;28;20039;-61
2022/10/23 12:28:36;;;;;;;1.33;0.82;;;;;;;22.38;59.94;99794.09;5091499;28;20031;-62
2022/10/23 12:31:39;;;;;;;2.10;1.35;;;;;;;22.36;62.70;99792.72;5089888;28;20032;-62
2022/10/23 12:34:37;;;;;;;1.40;1.00;;;;;;;22.43;60.31;99782.44;5090141;28;20054;-62
2022/10/23 12:37:21;;;;;;;1.92;1.08;;;;;;;22.59;59.67;99777.94;5091637;28;20054;-61
2022/10/23 12:39:52;;;;;;;1.52;1.20;;;;;;;22.19;61.95;99774.72;5090817;28;20040;-62
2022/10/23 12:42:24;;;;;;;6.05;1.50;;;;;;;22.43;61.88;99763.44;5090878;28;20048;-62
2022/10/23 12:45:00;;;;;;;1.40;1.20;;;;;;;22.58;60.19;99755.41;5095370;28;20028;-62
2022/10/23 12:47:28;;;;;;;2.35;1.40;;;;;;;22.64;59.48;99737.25;5095345;28;20062;-62
2022/10/23 12:49:53;;;;;;;;;;;;;;;22.43;59.85;99745.28;5095581;28;20553;-61
2022/10/23 12:52:20;;;;;;;2.05;1.20;;;;;;;22.39;62.54;99736.03;5093558;28;20023;-62
2022/10/23 12:54:46;;;;;;;1.70;1.00;;;;;;;22.31;63.55;99733.03;5095361;28;20131;-61
2022/10/23 12:57:26;;;;;;;3.40;1.73;;;;;;;22.29;62.78;99722.41;5095271;28;20286;-62
2022/10/23 13:00:01;;;;;;;2.90;1.55;;;;;;;22.28;62.13;99718.06;5095107;28;20032;-62
2022/10/23 13:02:30;;;;;;;1.63;1.08;;;;;;;22.06;62.91;99725.50;5094814;28;20545;-61
2022/10/23 13:04:59;;;;;;;2.67;1.25;;;;;;;22.05;63.30;99721.16;5095076;28;20032;-62
2022/10/23 13:07:28;;;;;;;1.50;1.10;;;;;;;22.01;63.20;99722.75;5095037;28;20040;-62
2022/10/23 13:09:57;;;;;;;2.05;1.50;;;;;;;22.21;62.35;99717.47;5093472;28;20028;-61
2022/10/23 13:12:32;;;;;;;1.75;1.23;;;;;;;22.30;63.04;99707.78;5093233;28;20067;-62
2022/10/23 13:15:07;;;;;;;4.28;2.20;;;;;;;22.35;63.21;99710.50;5094753;28;20116;-61
2022/10/23 13:17:54;;;;;;;2.50;1.80;;;;;;;22.30;63.39;99694.22;5094769;28;20028;-62
2022/10/23 13:20:22;;;;;;;2.47;1.30;;;;;;;22.44;63.60;99684.53;5094427;28;20031;-62
2022/10/23 13:22:55;;;;;;;2.53;1.27;;;;;;;22.36;64.86;99676.88;5094552;28;20028;-62
2022/10/23 13:25:23;;;;;;;3.47;1.52;;;;;;;22.34;64.79;99678.22;5094611;28;20445;-61
2022/10/23 13:27:49;;;;;;;4.28;1.40;;;;;;;21.93;66.30;99676.06;5094553;28;20043;-62
2022/10/23 13:30:32;;;;;;;3.08;1.25;;;;;;;21.93;67.78;99686.09;5094349;28;20202;-62
2022/10/23 13:32:58;;;;;;;1.75;1.50;;;;;;;21.67;68.40;99682.41;5094414;28;20483;-62
2022/10/23 13:35:24;;;;;;;3.03;1.45;;;;;;;21.75;68.91;99681.09;5094406;28;20389;-62
2022/10/23 13:37:50;;;;;;;3.58;1.65;;;;;;;21.73;68.46;99681.34;5093163;28;20147;-62
2022/10/23 13:40:25;;;;;;;2.00;1.40;;;;;;;21.62;69.26;99680.44;5094043;28;20044;-62
2022/10/23 13:42:53;;;;;;;2.95;1.50;;;;;;;21.43;70.14;99670.28;5094218;28;20378;-60
2022/10/23 13:45:25;;;;;;;3.05;1.48;;;;;;;21.20;72.25;99671.41;5092947;28;20085;-60
2022/10/23 13:47:50;;;;;;;2.65;1.42;;;;;;;21.21;72.36;99676.56;5094337;28;20166;-62
2022/10/23 13:50:16;;;;;;;2.13;1.30;;;;;;;21.28;72.80;99662.81;5093915;28;20674;-62
2022/10/23 13:52:41;;;;;;;2.60;1.58;;;;;;;21.22;73.12;99664.66;5093944;28;20401;-63
2022/10/23 13:55:22;;;;;;;3.25;1.65;;;;;;;21.27;73.67;99666.59;5093774;27;20071;-60
2022/10/23 13:57:48;;;;;;;3.10;1.42;;;;;;;21.12;73.93;99665.34;5094058;28;20032;-63
2022/10/23 14:00:15;;;;;;;5.43;1.95;;;;;;;21.16;75.20;99660.25;5126510;27;20108;-60
2022/10/23 14:02:41;;;;;;;2.40;1.52;;;;;;;21.05;75.97;99647.69;5093925;28;20036;-60
2022/10/23 14:05:07;;;;;;;2.22;1.50;;;;;;;20.95;75.03;99640.31;5093822;28;20032;-60
2022/10/23 14:07:33;;;;;;;2.45;1.45;;;;;;;21.04;76.61;99646.06;5093907;28;20036;-62
2022/10/23 14:09:58;;;;;;;3.80;1.70;;;;;;;21.00;75.36;99650.38;5093754;28;20123;-62
2022/10/23 14:12:23;;;;;;;4.18;1.80;;;;;;;20.98;76.50;99644.38;5093441;28;20149;-60
2022/10/23 14:14:50;;;;;;;2.28;1.50;;;;;;;20.90;77.40;99644.84;5093725;28;20507;-62
2022/10/23 14:17:16;;;;;;;2.35;1.70;;;;;;;20.88;77.45;99647.81;5093632;28;20447;-62
2022/10/23 14:19:41;;;;;;;3.95;1.48;;;;;;;20.81;77.44;99652.59;5093737;28;20052;-61
2022/10/23 14:22:07;;;;;;;2.90;1.45;;;;;;;20.67;78.03;99663.03;5093054;28;20112;-61
2022/10/23 14:24:32;;;;;;;4.40;2.00;;;;;;;20.65;77.90;99670.53;5093592;28;20063;-62
2022/10/23 14:26:58;;;;;;;3.20;1.42;;;;;;;20.65;76.83;99662.44;5093469;28;20152;-61
2022/10/23 14:29:24;;;;;;;5.47;1.52;;;;;;;20.61;79.79;99664.03;5093397;28;20036;-59
2022/10/23 14:31:49;;;;;;;3.53;1.90;;;;;;;20.53;79.63;99653.63;5093103;28;20044;-62
2022/10/23 14:34:15;;;;;;;2.75;1.73;;;;;;;20.54;80.74;99658.00;5093366;28;20042;-62
2022/10/23 14:36:40;;;;;;;2.30;1.50;;;;;;;20.46;80.83;99651.13;5093267;28;20036;-62
2022/10/23 14:39:06;;;;;;;2.30;1.40;;;;;;;20.37;82.62;99641.78;5093225;28;20039;-63
2022/10/23 14:41:31;;;;;;;3.22;1.85;;;;;;;20.23;84.04;99641.34;5092720;28;20032;-63
2022/10/23 14:43:56;;;;;;;2.22;1.67;;;;;;;20.18;86.54;99646.69;5093225;28;20484;-62
2022/10/23 14:46:23;;;;;;;3.90;1.80;;;;;;;20.20;86.60;99651.84;5093068;28;20401;-63
2022/10/23 14:48:50;;;;;;;3.47;1.95;;;;;;;20.18;87.16;99649.38;5093178;28;20114;-54
2022/10/23 14:51:21;;;;;;;3.28;2.13;;;;;;;20.14;88.00;99653.66;5092750;28;20029;-58
2022/10/23 14:53:48;;;;;;;3.25;1.90;;;;;;;20.14;88.78;99658.25;5093015;28;20040;-56
2022/10/23 14:56:14;;;;;;;4.37;1.70;;;;;;;20.13;87.83;99653.91;5092860;28;20480;-55
2022/10/23 14:58:41;;;;;;;2.33;1.63;;;;;;;20.05;87.74;99639.75;5092833;28;20188;-56
2022/10/23 15:01:07;;;;;;;2.88;1.73;;;;;;;19.98;88.41;99639.13;5092613;28;20064;-55
2022/10/23 15:03:32;;;;;;;2.10;1.40;;;;;;;20.00;89.08;99633.47;5092697;28;20117;-58
2022/10/23 15:05:57;;;;;;;3.10;1.60;;;;;;;19.94;90.83;99615.53;5091821;28;20485;-58
2022/10/23 15:08:23;;;;;;;2.10;1.50;;;;;;;19.95;89.69;99622.56;5092733;28;20047;-57
2022/10/23 15:10:49;;;;;;;3.03;2.00;;;;;;;19.94;91.83;99612.84;5092155;28;20049;-56
2022/10/23 15:13:15;;;;;;;2.30;1.65;;;;;;;19.89;92.87;99602.78;5092461;28;20035;-56
2022/10/23 15:15:40;;;;;;;2.22;1.42;;;;;;;19.86;93.03;99594.34;5092505;28;20382;-60
2022/10/23 15:18:06;;;;;;;2.22;1.55;;;;;;;19.87;94.36;99588.69;5092441;28;20429;-58
2022/10/23 15:20:31;;;;;;;1.40;1.30;;;;;;;19.79;95.10;99595.34;5090798;28;20051;-58
2022/10/23 15:22:57;;;;;;;2.20;1.50;;;;;;;19.79;94.91;99589.13;5092429;28;20040;-57
2022/10/23 15:25:22;;;;;;;4.95;2.03;;;;;;;19.75;96.07;99586.09;5092280;28;20040;-58
2022/10/23 15:27:48;;;;;;;2.90;1.90;;;;;;;19.75;96.13;99579.88;5092391;28;20119;-58
2022/10/23 15:30:13;;;;;;;3.47;2.03;;;;;;;19.76;95.70;99571.53;5092066;28;20040;-58
2022/10/23 15:32:39;;;;;;;3.08;1.90;;;;;;;19.73;94.01;99574.72;5091971;28;20090;-59
2022/10/23 15:35:05;;;;;;;2.65;1.50;;;;;;;19.69;92.94;99564.66;5092264;28;20588;-57
2022/10/23 15:37:31;;;;;;;2.90;1.80;;;;;;;19.60;94.28;99566.16;5092174;28;20163;-59
2022/10/23 15:39:56;;;;;;;8.00;1.50;;;;;;;19.55;95.05;99558.75;5091842;28;20539;-59
2022/10/23 15:42:22;;;;;;;3.88;1.90;;;;;;;19.51;97.26;99563.03;5091880;28;20040;-57
2022/10/23 15:44:48;;;;;;;2.17;1.67;;;;;;;19.48;97.69;99563.53;5092020;28;20054;-58
2022/10/23 15:47:14;;;;;;;3.60;1.80;;;;;;;19.36;98.25;99541.19;5091988;28;20044;-58
2022/10/23 15:49:39;;;;;;;2.80;1.95;;;;;;;19.35;97.94;99542.28;5091914;28;20051;-58
2022/10/23 15:52:07;;;;;;;3.15;1.98;;;;;;;19.30;98.30;99544.88;5091476;28;20028;-54
2022/10/23 15:54:33;;;;;;;2.58;1.90;;;;;;;19.11;100.00;99552.44;5091814;28;20032;-58
2022/10/23 15:57:00;;;;;;;1.88;1.67;;;;;;;19.11;100.00;99553.25;5091790;28;20389;-55
2022/10/23 15:59:27;;;;;;;7.45;1.80;;;;;;;19.01;100.00;99547.69;5091759;28;20048;-55
2022/10/23 16:01:52;;;;;;;4.22;1.77;;;;;;;19.00;100.00;99547.94;5091497;28;20032;-55
2022/10/23 16:04:18;;;;;;;3.80;1.50;;;;;;;18.85;99.94;99540.41;5091764;28;20032;-56
2022/10/23 16:06:44;;;;;;;2.20;1.65;;;;;;;18.81;98.56;99552.75;5090412;28;20044;-62
2022/10/23 16:09:10;;;;;;;3.05;1.77;;;;;;;18.73;99.52;99555.84;5091564;28;20042;-64
2022/10/23 16:11:37;;;;;;;1.67;1.30;;;;;;;18.74;98.51;99535.91;5091149;28;20089;-62
2022/10/23 16:14:04;;;;;;;3.03;1.58;;;;;;;18.70;95.82;99519.38;5090278;28;20084;-62
2022/10/23 16:16:31;;;;;;;3.88;2.28;;;;;;;18.52;98.28;99531.19;5091424;28;20485;-63